Time;durP1;ratioP1;P1;durP2;ratioP2;P2;SDS_P1;SDS_P2;PMS_P1;PMS_P2;Temp;Humidity;BMP_temperature;BMP_pressure;BME280_temperature;BME280_humidity;BME280_pressure;Samples;Min_cycle;Max_cycle;Signal;HPM_P1;HPM_P2
2023/10/03 00:01:40;;;;;;;9.80;5.82;;;;;;;;;;5078338;28;20543;-72
2023/10/03 00:04:09;;;;;;;10.88;6.43;;;;;;;;;;5077654;28;20050;-72
2023/10/03 00:06:38;;;;;;;9.83;6.10;;;24.20;79.30;;;;;;5078127;28;20086;-73
2023/10/03 00:09:08;;;;;;;9.25;5.53;;;;;;;;;;5077986;28;20032;-73
2023/10/03 00:11:35;;;;;;;12.43;6.55;;;;;;;;;;5077817;28;20035;-73
2023/10/03 00:14:06;;;;;;;10.77;5.93;;;;;;;;;;5077811;28;20135;-73
2023/10/03 00:16:33;;;;;;;10.65;6.22;;;;;;;;;;5077743;28;20459;-73
2023/10/03 00:18:59;;;;;;;11.68;6.03;;;;;;;;;;5077635;28;20124;-73
2023/10/03 00:21:25;;;;;;;10.65;6.40;;;;;;;;;;5077651;28;20074;-73
2023/10/03 00:23:51;;;;;;;9.80;5.75;;;;;;;;;;5077765;28;20032;-73
2023/10/03 00:26:19;;;;;;;11.98;6.70;;;;;;;;;;5077895;28;20020;-73
2023/10/03 00:28:45;;;;;;;12.40;6.70;;;;;;;;;;5077897;28;20033;-73
2023/10/03 00:31:14;;;;;;;10.30;5.93;;;;;;;;;;5078019;28;20044;-73
2023/10/03 00:33:44;;;;;;;11.77;6.40;;;;;;;;;;5077833;28;20366;-73
2023/10/03 00:36:18;;;;;;;10.95;6.00;;;24.00;73.60;;;;;;5077380;28;20024;-73
2023/10/03 00:38:45;;;;;;;10.57;5.85;;;;;;;;;;5077775;28;20112;-73
2023/10/03 00:41:13;;;;;;;10.77;5.97;;;;;;;;;;5077831;28;20025;-73
2023/10/03 00:43:56;;;;;;;12.25;6.25;;;24.00;73.50;;;;;;5077560;28;20077;-72
2023/10/03 00:46:23;;;;;;;11.95;7.25;;;;;;;;;;5077659;28;20398;-72
2023/10/03 00:48:49;;;;;;;10.20;5.88;;;;;;;;;;5077756;28;20101;-72
2023/10/03 00:51:20;;;;;;;9.88;6.15;;;;;;;;;;5077294;28;20111;-72
2023/10/03 00:53:47;;;;;;;9.27;5.60;;;;;;;;;;5074789;28;20040;-73
2023/10/03 00:56:15;;;;;;;11.25;6.60;;;;;;;;;;5074149;28;20052;-72
2023/10/03 00:58:41;;;;;;;11.65;6.70;;;;;;;;;;5074826;28;20032;-72
2023/10/03 01:01:09;;;;;;;11.25;7.03;;;;;;;;;;5074232;28;20029;-72
2023/10/03 01:03:38;;;;;;;10.80;6.00;;;24.00;73.70;;;;;;5073842;28;20052;-72
2023/10/03 01:06:05;;;;;;;12.20;6.60;;;;;;;;;;5074174;28;20021;-73
2023/10/03 01:08:46;;;;;;;11.98;6.90;;;23.90;73.50;;;;;;5073956;28;20286;-72
2023/10/03 01:11:18;;;;;;;11.88;6.70;;;;;;;;;;5074024;28;20127;-73
2023/10/03 01:13:48;;;;;;;11.77;6.45;;;;;;;;;;5074191;28;20024;-73
2023/10/03 01:16:23;;;;;;;11.48;6.30;;;23.80;78.80;;;;;;5073938;28;20024;-73
2023/10/03 01:18:52;;;;;;;13.82;7.03;;;;;;;;;;5073791;28;20123;-73
2023/10/03 01:21:20;;;;;;;11.25;6.57;;;;;;;;;;5073899;28;20021;-73
2023/10/03 01:23:47;;;;;;;13.95;7.18;;;;;;;;;;5073851;28;20027;-73
2023/10/03 01:26:14;;;;;;;12.65;6.72;;;;;;;;;;5074466;28;20021;-72
2023/10/03 01:28:40;;;;;;;14.55;6.85;;;;;;;;;;5073704;28;20025;-72
2023/10/03 01:31:06;;;;;;;11.98;6.63;;;;;;;;;;5073550;28;20036;-72
2023/10/03 01:33:33;;;;;;;12.07;7.05;;;;;;;;;;5073754;28;20474;-72
2023/10/03 01:36:01;;;;;;;11.45;6.43;;;;;;;;;;5073515;28;20020;-72
2023/10/03 01:38:27;;;;;;;11.70;6.97;;;;;;;;;;5073637;28;20040;-73
2023/10/03 01:40:57;;;;;;;14.00;7.60;;;23.90;77.20;;;;;;5073361;28;20501;-73
2023/10/03 01:43:23;;;;;;;14.25;7.38;;;;;;;;;;5073411;28;20056;-73
2023/10/03 01:45:53;;;;;;;12.90;7.30;;;;;;;;;;5073293;28;20029;-73
2023/10/03 01:48:19;;;;;;;14.85;8.02;;;;;;;;;;5073521;28;20048;-73
2023/10/03 01:50:45;;;;;;;14.13;7.50;;;;;;;;;;5073212;28;20020;-74
2023/10/03 01:53:11;;;;;;;13.60;7.57;;;;;;;;;;5073120;28;20043;-74
2023/10/03 01:55:38;;;;;;;12.80;7.20;;;;;;;;;;5073619;28;20097;-73
2023/10/03 01:58:04;;;;;;;14.30;7.30;;;;;;;;;;5072971;28;20040;-73
2023/10/03 02:00:36;;;;;;;15.07;7.57;;;;;;;;;;5072958;28;20039;-73
2023/10/03 02:03:05;;;;;;;13.27;7.07;;;23.90;79.20;;;;;;5072928;28;20059;-71
2023/10/03 02:05:39;;;;;;;15.05;7.57;;;23.70;79.20;;;;;;5072679;28;20108;-70
2023/10/03 02:08:23;;;;;;;;;;;23.70;80.30;;;;;;5071597;28;20028;-71
2023/10/03 02:10:50;;;;;;;16.10;8.18;;;23.70;76.10;;;;;;5072810;28;19950;-72
2023/10/03 02:13:18;;;;;;;14.27;7.88;;;23.70;79.00;;;;;;5072773;28;20359;-71
2023/10/03 02:15:45;;;;;;;17.25;7.97;;;23.60;77.10;;;;;;5072353;28;20051;-71
2023/10/03 02:18:12;;;;;;;15.88;8.02;;;23.70;79.30;;;;;;5072347;28;20032;-71
2023/10/03 02:21:01;;;;;;;14.32;7.80;;;23.70;79.10;;;;;;5072327;28;20120;-72
2023/10/03 02:23:27;;;;;;;14.85;8.43;;;;;;;;;;5072273;28;20028;-72
2023/10/03 02:26:04;;;;;;;16.55;8.48;;;23.80;73.90;;;;;;5072300;28;20032;-72
2023/10/03 02:28:31;;;;;;;15.18;8.38;;;23.70;78.70;;;;;;5072288;28;20510;-72
2023/10/03 02:30:59;;;;;;;16.77;8.18;;;;;;;;;;5072525;28;20047;-73
2023/10/03 02:33:26;;;;;;;15.43;8.10;;;;;;;;;;5072312;28;20393;-72
2023/10/03 02:35:52;;;;;;;15.10;7.65;;;;;;;;;;5072347;28;20028;-72
2023/10/03 02:38:29;;;;;;;16.20;8.20;;;;;;;;;;5072399;28;20045;-72
2023/10/03 02:40:59;;;;;;;15.32;8.43;;;23.70;76.90;;;;;;5072364;28;20033;-72
2023/10/03 02:43:31;;;;;;;14.75;8.20;;;23.60;73.80;;;;;;5072419;28;20069;-72
2023/10/03 02:45:58;;;;;;;13.90;7.32;;;;;;;;;;5072364;28;20040;-72
2023/10/03 02:48:25;;;;;;;14.98;8.52;;;;;;;;;;5071972;28;20486;-73
2023/10/03 02:50:51;;;;;;;15.68;7.90;;;;;;;;;;5071882;28;20036;-72
2023/10/03 02:53:22;;;;;;;14.82;7.82;;;23.60;79.40;;;;;;5072778;28;20386;-73
2023/10/03 02:55:49;;;;;;;;;;;23.70;80.20;;;;;;5072600;28;20092;-73
2023/10/03 02:58:15;;;;;;;15.63;8.43;;;;;;;;;;5071598;28;19922;-73
2023/10/03 03:00:41;;;;;;;17.60;7.70;;;;;;;;;;5071728;28;20033;-73
2023/10/03 03:03:11;;;;;;;18.23;7.95;;;;;;;;;;5071604;28;20036;-72
2023/10/03 03:05:38;;;;;;;16.55;8.00;;;;;;;;;;5071754;28;20024;-73
2023/10/03 03:08:22;;;;;;;13.10;7.57;;;23.70;79.60;;;;;;5071969;28;20099;-73
2023/10/03 03:10:56;;;;;;;15.60;7.90;;;23.60;73.90;;;;;;5071940;28;20025;-73
2023/10/03 03:13:31;;;;;;;13.82;7.65;;;23.60;79.90;;;;;;5071719;28;20040;-73
2023/10/03 03:16:01;;;;;;;14.35;7.45;;;;;;;;;;5071448;28;20021;-73
2023/10/03 03:18:31;;;;;;;14.00;7.07;;;23.60;73.90;;;;;;5071385;28;20490;-73
2023/10/03 03:20:57;;;;;;;16.08;8.20;;;;;;;;;;5071982;28;20027;-71
2023/10/03 03:23:30;;;;;;;13.90;6.65;;;23.60;74.60;;;;;;5071484;28;20032;-72
2023/10/03 03:26:02;;;;;;;11.45;6.13;;;;;;;;;;5071426;28;20068;-72
2023/10/03 03:28:28;;;;;;;13.77;6.53;;;;;;;;;;5071533;28;20032;-72
2023/10/03 03:30:56;;;;;;;15.82;6.95;;;;;;;;;;5071378;28;20029;-72
2023/10/03 03:33:26;;;;;;;10.82;5.53;;;;;;;;;;5071491;28;20024;-71
2023/10/03 03:35:52;;;;;;;14.23;6.72;;;;;;;;;;5071476;28;20326;-72
2023/10/03 03:38:18;;;;;;;12.18;5.53;;;;;;;;;;5071324;28;20399;-73
2023/10/03 03:40:55;;;;;;;10.77;5.43;;;23.50;74.30;;;;;;5071276;28;20029;-72
2023/10/03 03:43:21;;;;;;;11.30;6.40;;;;;;;;;;5071330;28;20020;-72
2023/10/03 03:45:48;;;;;;;12.02;5.45;;;;;;;;;;5071269;28;20035;-72
2023/10/03 03:48:14;;;;;;;12.25;5.80;;;;;;;;;;5053462;28;20116;-72
2023/10/03 03:50:41;;;;;;;11.48;6.72;;;;;;;;;;5072004;28;20124;-72
2023/10/03 03:53:07;;;;;;;11.07;7.13;;;;;;;;;;5071240;28;20545;-72
2023/10/03 03:55:37;;;;;;;14.25;9.00;;;23.50;74.90;;;;;;5071242;28;20032;-72
2023/10/03 03:58:05;;;;;;;16.83;10.50;;;;;;;;;;5071110;28;20078;-73
2023/10/03 04:00:32;;;;;;;14.10;9.82;;;;;;;;;;5071304;28;20386;-72
2023/10/03 04:03:11;;;;;;;15.52;11.05;;;23.50;80.00;;;;;;5070901;28;20029;-72
2023/10/03 04:05:40;;;;;;;15.00;11.98;;;;;;;;;;5071464;28;20104;-72
2023/10/03 04:08:07;;;;;;;17.58;12.65;;;;;;;;;;5071306;28;20032;-72
2023/10/03 04:10:34;;;;;;;16.05;13.65;;;;;;;;;;5071186;28;20033;-72
2023/10/03 04:13:00;;;;;;;16.42;13.40;;;;;;;;;;5071052;28;20039;-72
2023/10/03 04:15:27;;;;;;;18.20;14.98;;;;;;;;;;5071068;28;20025;-72
2023/10/03 04:17:53;;;;;;;16.60;13.00;;;;;;;;;;5071507;28;20127;-72
2023/10/03 04:20:25;;;;;;;16.58;14.05;;;;;;;;;;5071004;28;20505;-71
2023/10/03 04:22:54;;;;;;;15.93;13.80;;;23.40;74.50;;;;;;5071041;28;20127;-71
2023/10/03 04:25:20;;;;;;;14.73;12.45;;;;;;;;;;5070867;28;20082;-72
2023/10/03 04:27:48;;;;;;;13.90;12.43;;;23.50;80.10;;;;;;5070854;28;20028;-72
2023/10/03 04:30:14;;;;;;;16.75;12.68;;;;;;;;;;5073999;28;20028;-71
2023/10/03 04:32:41;;;;;;;17.50;11.57;;;23.40;79.10;;;;;;5074623;28;20029;-72
2023/10/03 04:35:13;;;;;;;14.43;11.75;;;23.40;77.80;;;;;;5056898;28;20493;-71
2023/10/03 04:37:41;;;;;;;13.68;10.98;;;23.40;79.30;;;;;;5074421;28;20024;-71
2023/10/03 04:40:13;;;;;;;11.20;9.57;;;;;;;;;;5074418;28;20020;-71
2023/10/03 04:42:40;;;;;;;11.70;9.52;;;;;;;;;;5074627;28;20029;-72
2023/10/03 04:45:08;;;;;;;11.90;9.43;;;23.80;79.00;;;;;;5074464;28;20033;-71
2023/10/03 04:47:34;;;;;;;10.50;8.20;;;;;;;;;;5074760;28;20098;-72
2023/10/03 04:50:01;;;;;;;10.50;7.90;;;;;;;;;;5074525;28;20040;-72
2023/10/03 04:52:27;;;;;;;12.30;8.18;;;;;;;;;;5074215;28;20536;-72
2023/10/03 04:54:53;;;;;;;9.80;6.50;;;;;;;;;;5074131;28;20132;-72
2023/10/03 04:57:19;;;;;;;8.73;5.80;;;;;;;;;;5074113;28;20048;-72
2023/10/03 04:59:45;;;;;;;8.70;5.22;;;;;;;;;;5074059;28;20075;-73
2023/10/03 05:02:11;;;;;;;7.38;5.30;;;;;;;;;;5073878;28;20055;-73
2023/10/03 05:04:37;;;;;;;7.40;4.95;;;23.30;76.80;;;;;;5073883;28;20127;-72
2023/10/03 05:07:03;;;;;;;9.10;5.18;;;;;;;;;;5073815;28;20032;-72
2023/10/03 05:09:32;;;;;;;8.43;4.80;;;;;;;;;;5074089;28;20482;-72
2023/10/03 05:11:58;;;;;;;6.93;3.95;;;;;;;;;;5073997;28;20044;-72
2023/10/03 05:14:24;;;;;;;7.15;4.05;;;;;;;;;;5074240;28;20064;-72
2023/10/03 05:16:50;;;;;;;7.03;3.97;;;;;;;;;;5073792;28;20025;-72
2023/10/03 05:19:21;;;;;;;7.10;4.30;;;23.30;74.70;;;;;;5073616;28;20044;-72
2023/10/03 05:21:47;;;;;;;;;;;23.30;80.40;;;;;;5074265;28;20082;-72
2023/10/03 05:24:15;;;;;;;6.15;3.25;;;;;;;;;;5073977;28;19912;-72
2023/10/03 05:26:41;;;;;;;5.53;3.28;;;;;;;;;;5073730;28;20032;-72
2023/10/03 05:29:07;;;;;;;6.22;3.20;;;;;;;;;;5073866;28;20021;-72
2023/10/03 05:31:40;;;;;;;5.93;3.17;;;;;;;;;;5073565;28;20036;-72
2023/10/03 05:34:07;;;;;;;6.70;3.40;;;23.20;80.10;;;;;;5073805;28;20033;-72
2023/10/03 05:36:33;;;;;;;4.43;2.90;;;;;;;;;;5073536;28;20036;-73
2023/10/03 05:39:00;;;;;;;7.28;3.10;;;;;;;;;;5073158;28;20040;-73
2023/10/03 05:41:26;;;;;;;6.63;3.10;;;;;;;;;;5073013;28;20476;-72
2023/10/03 05:43:52;;;;;;;7.45;3.25;;;;;;;;;;5073771;28;20035;-72
2023/10/03 05:46:18;;;;;;;5.35;3.00;;;;;;;;;;5073297;28;20028;-73
2023/10/03 05:48:45;;;;;;;4.68;2.95;;;;;;;;;;5073273;28;20433;-73
2023/10/03 05:51:12;;;;;;;6.70;2.65;;;;;;;;;;5073119;28;20500;-73
2023/10/03 05:53:41;;;;;;;5.50;2.80;;;;;;;;;;5073303;28;20028;-72
2023/10/03 05:56:10;;;;;;;5.72;2.60;;;;;;;;;;5073160;28;20040;-72
2023/10/03 05:58:37;;;;;;;4.55;2.63;;;;;;;;;;5072766;28;20045;-72
2023/10/03 06:01:03;;;;;;;6.25;2.60;;;;;;;;;;5073028;28;20048;-72
2023/10/03 06:03:29;;;;;;;5.07;2.65;;;;;;;;;;5072513;28;20411;-72
2023/10/03 06:05:55;;;;;;;6.18;3.00;;;;;;;;;;5072657;28;20025;-73
2023/10/03 06:08:21;;;;;;;4.43;2.30;;;;;;;;;;5072661;28;20020;-72
2023/10/03 06:10:56;;;;;;;5.25;2.65;;;;;;;;;;5072737;28;20470;-75
2023/10/03 06:13:22;;;;;;;6.43;2.67;;;;;;;;;;5072709;28;20082;-70
2023/10/03 06:15:48;;;;;;;4.32;2.20;;;;;;;;;;5072882;28;20414;-70
2023/10/03 06:18:14;;;;;;;6.32;2.80;;;;;;;;;;5072410;28;20036;-78
2023/10/03 06:20:41;;;;;;;5.00;2.25;;;23.20;80.40;;;;;;5072453;28;20055;-70
2023/10/03 06:23:08;;;;;;;4.00;2.20;;;;;;;;;;5072628;28;20028;-70
2023/10/03 06:25:35;;;;;;;3.60;2.10;;;;;;;;;;5072449;28;20110;-71
2023/10/03 06:28:01;;;;;;;3.63;1.98;;;;;;;;;;5072708;28;20031;-71
2023/10/03 06:30:27;;;;;;;3.25;2.42;;;;;;;;;;5072368;28;20044;-71
2023/10/03 06:32:54;;;;;;;3.33;2.30;;;;;;;;;;5072419;28;20111;-71
2023/10/03 06:35:20;;;;;;;7.43;2.15;;;;;;;;;;5072205;28;20032;-71
2023/10/03 06:37:48;;;;;;;3.92;1.95;;;;;;;;;;5072259;28;20037;-71
2023/10/03 06:40:16;;;;;;;4.28;2.22;;;;;;;;;;5072368;28;20355;-72
2023/10/03 06:42:42;;;;;;;4.53;1.73;;;;;;;;;;5072458;28;20055;-72
2023/10/03 06:45:09;;;;;;;2.72;1.63;;;;;;;;;;5071847;28;20039;-71
2023/10/03 06:47:36;;;;;;;4.28;1.90;;;;;;;;;;5072084;28;20029;-71
2023/10/03 06:50:05;;;;;;;2.35;1.73;;;;;;;;;;5072005;28;20402;-71
2023/10/03 06:52:32;;;;;;;3.63;2.10;;;;;;;;;;5071211;28;20047;-71
2023/10/03 06:54:58;;;;;;;2.75;1.63;;;;;;;;;;5072334;28;20373;-71
2023/10/03 06:57:24;;;;;;;4.18;1.52;;;;;;;;;;5071943;28;20029;-70
2023/10/03 06:59:50;;;;;;;3.53;1.70;;;;;;;;;;5071863;28;20394;-72
2023/10/03 07:02:18;;;;;;;2.80;1.65;;;;;;;;;;5071803;28;20056;-71
2023/10/03 07:04:44;;;;;;;4.18;1.77;;;;;;;;;;5071494;28;20041;-71
2023/10/03 07:07:10;;;;;;;6.05;1.70;;;;;;;;;;5071644;28;20017;-72
2023/10/03 07:09:40;;;;;;;3.05;1.50;;;;;;;;;;5071557;28;20033;-72
2023/10/03 07:12:08;;;;;;;2.70;1.63;;;;;;;;;;5071803;28;20328;-71
2023/10/03 07:14:35;;;;;;;3.22;1.40;;;23.00;77.80;;;;;;5071731;28;20032;-72
2023/10/03 07:17:02;;;;;;;2.55;1.40;;;;;;;;;;5072225;28;20431;-71
2023/10/03 07:19:30;;;;;;;2.25;1.20;;;;;;;;;;5071432;28;20050;-71
2023/10/03 07:21:56;;;;;;;5.00;1.30;;;;;;;;;;5071459;28;20162;-71
2023/10/03 07:24:24;;;;;;;2.35;1.20;;;;;;;;;;5071691;28;20090;-71
2023/10/03 07:26:51;;;;;;;3.33;1.20;;;;;;;;;;5071614;28;20460;-71
2023/10/03 07:29:17;;;;;;;2.70;1.40;;;;;;;;;;5071598;28;20029;-71
2023/10/03 07:31:44;;;;;;;2.75;1.00;;;;;;;;;;5071696;28;20111;-71
2023/10/03 07:34:12;;;;;;;4.43;1.63;;;;;;;;;;5071798;28;20051;-70
2023/10/03 07:36:40;;;;;;;3.35;1.63;;;;;;;;;;5071856;28;20036;-71
2023/10/03 07:39:08;;;;;;;3.13;1.40;;;;;;;;;;5071500;28;20552;-70
2023/10/03 07:41:34;;;;;;;3.13;1.55;;;;;;;;;;5071341;28;20036;-71
2023/10/03 07:44:01;;;;;;;3.50;1.05;;;;;;;;;;5071762;28;20026;-71
2023/10/03 07:46:27;;;;;;;1.50;1.02;;;;;;;;;;5071665;28;20028;-73
2023/10/03 07:48:54;;;;;;;3.35;1.08;;;;;;;;;;5071378;28;20497;-73
2023/10/03 07:51:31;;;;;;;3.33;1.45;;;22.90;79.20;;;;;;5071688;28;20083;-74
2023/10/03 07:53:57;;;;;;;3.17;1.23;;;;;;;;;;5071290;28;20112;-73
2023/10/03 07:56:30;;;;;;;2.47;1.20;;;;;;;;;;5071391;28;20154;-71
2023/10/03 07:58:57;;;;;;;4.22;1.40;;;22.80;77.60;;;;;;5071186;28;20044;-73
2023/10/03 08:01:26;;;;;;;2.13;1.05;;;22.90;79.20;;;;;;5071303;28;20481;-74
2023/10/03 08:03:57;;;;;;;1.42;1.10;;;23.20;78.50;;;;;;5074371;28;20048;-73
2023/10/03 08:06:33;;;;;;;2.53;1.17;;;22.80;78.90;;;;;;5075327;28;20028;-72
2023/10/03 08:08:59;;;;;;;2.50;1.13;;;;;;;;;;5075355;28;20060;-71
2023/10/03 08:11:31;;;;;;;2.35;1.10;;;22.80;80.10;;;;;;5078232;28;20033;-71
2023/10/03 08:14:11;;;;;;;1.92;1.10;;;22.80;77.00;;;;;;5076010;28;20029;-71
2023/10/03 08:16:37;;;;;;;1.57;0.90;;;;;;;;;;5058807;28;20024;-73
2023/10/03 08:19:08;;;;;;;2.88;1.13;;;;;;;;;;5074937;28;20044;-73
2023/10/03 08:21:34;;;;;;;1.75;1.05;;;;;;;;;;5075104;28;20086;-73
2023/10/03 08:24:09;;;;;;;2.55;1.42;;;;;;;;;;5074963;28;20082;-74
2023/10/03 08:26:36;;;;;;;4.00;1.50;;;;;;;;;;5075195;28;20036;-72
2023/10/03 08:29:05;;;;;;;1.70;1.33;;;;;;;;;;5074924;28;20071;-72
2023/10/03 08:31:32;;;;;;;2.50;1.15;;;;;;;;;;5075002;28;20029;-72
2023/10/03 08:33:59;;;;;;;3.20;1.60;;;;;;;;;;5074852;28;20054;-73
2023/10/03 08:36:28;;;;;;;2.30;1.20;;;22.90;74.60;;;;;;5074682;28;20526;-73
2023/10/03 08:39:04;;;;;;;1.83;1.40;;;;;;;;;;5074783;28;20033;-73
2023/10/03 08:42:12;;;;;;;2.60;1.40;;;22.80;74.60;;;;;;5074462;28;20055;-73
2023/10/03 08:44:58;;;;;;;3.00;1.25;;;22.80;74.90;;;;;;5035604;28;20067;-73
2023/10/03 08:47:29;;;;;;;2.75;1.10;;;22.80;80.60;;;;;;5074648;28;20029;-73
2023/10/03 08:50:10;;;;;;;3.70;1.30;;;22.80;74.70;;;;;;5074309;28;20115;-73
2023/10/03 08:52:39;;;;;;;2.05;1.35;;;22.80;80.80;;;;;;5074407;28;20023;-72
2023/10/03 08:55:09;;;;;;;2.97;1.48;;;22.80;75.00;;;;;;5074283;28;20112;-73
2023/10/03 08:57:40;;;;;;;4.43;1.25;;;;;;;;;;5074157;28;20039;-72
2023/10/03 09:00:08;;;;;;;2.03;1.23;;;;;;;;;;5074003;28;20050;-73
2023/10/03 09:02:45;;;;;;;3.53;1.23;;;;;;;;;;5074008;28;20056;-73
2023/10/03 09:05:19;;;;;;;2.72;1.40;;;22.70;74.80;;;;;;5074083;28;20045;-73
2023/10/03 09:07:47;;;;;;;2.10;0.90;;;22.80;80.40;;;;;;5074257;28;20404;-73
2023/10/03 09:10:22;;;;;;;1.95;0.85;;;22.70;75.00;;;;;;5074472;28;20025;-73
2023/10/03 09:12:51;;;;;;;1.88;1.20;;;23.30;80.80;;;;;;5074302;28;20028;-73
2023/10/03 09:15:22;;;;;;;4.78;1.00;;;22.70;80.30;;;;;;5038896;28;20103;-73
2023/10/03 09:17:52;;;;;;;2.97;1.10;;;22.80;78.30;;;;;;5056342;28;20499;-73
2023/10/03 09:20:21;;;;;;;2.78;1.50;;;22.70;74.90;;;;;;5073895;28;20031;-73
2023/10/03 09:22:47;;;;;;;3.60;1.52;;;;;;;;;;5073840;28;20024;-73
2023/10/03 09:25:16;;;;;;;3.33;0.90;;;;;;;;;;5073697;28;20044;-73
2023/10/03 09:27:43;;;;;;;1.55;0.75;;;;;;;;;;5073583;28;20108;-72
2023/10/03 09:30:22;;;;;;;1.50;0.85;;;;;;;;;;5073786;28;20033;-72
2023/10/03 09:32:53;;;;;;;5.53;1.25;;;22.70;80.30;;;;;;5073485;28;20028;-72
2023/10/03 09:35:20;;;;;;;3.00;1.05;;;;;;;;;;5073427;28;20025;-73
2023/10/03 09:37:48;;;;;;;4.13;1.17;;;22.70;79.70;;;;;;5073273;28;20020;-72
2023/10/03 09:40:17;;;;;;;1.85;0.70;;;;;;;;;;5073508;28;20081;-73
2023/10/03 09:42:49;;;;;;;1.67;1.00;;;22.90;80.50;;;;;;5073604;28;20024;-72
2023/10/03 09:45:18;;;;;;;1.30;0.88;;;22.70;80.50;;;;;;5073450;28;20453;-72
2023/10/03 09:47:45;;;;;;;2.53;0.70;;;22.60;80.40;;;;;;5073544;28;20029;-73
2023/10/03 09:50:13;;;;;;;2.25;0.90;;;22.60;78.80;;;;;;5073441;28;20137;-72
2023/10/03 09:52:44;;;;;;;2.53;0.90;;;;;;;;;;5073014;28;20024;-70
2023/10/03 09:55:17;;;;;;;0.98;0.63;;;;;;;;;;5073441;28;20039;-71
2023/10/03 09:57:46;;;;;;;4.70;1.20;;;22.60;80.20;;;;;;5072936;28;20033;-72
2023/10/03 10:00:25;;;;;;;0.70;0.50;;;22.60;79.30;;;;;;5072841;28;20113;-73
2023/10/03 10:02:55;;;;;;;1.02;0.82;;;22.80;80.40;;;;;;5072885;28;20109;-73
2023/10/03 10:05:27;;;;;;;1.83;1.05;;;22.60;80.50;;;;;;5073100;28;20032;-73
2023/10/03 10:07:58;;;;;;;1.35;0.55;;;22.90;74.70;;;;;;5073239;28;20024;-72
2023/10/03 10:10:25;;;;;;;1.70;0.77;;;;;;;;;;5072678;28;20174;-72
2023/10/03 10:13:20;;;;;;;2.05;0.70;;;22.70;74.60;;;;;;5073007;28;20082;-72
2023/10/03 10:16:23;;;;;;;1.25;0.60;;;22.50;74.10;;;;;;5072652;28;20487;-71
2023/10/03 10:18:51;;;;;;;1.50;0.65;;;22.60;74.20;;;;;;5071962;28;20044;-72
2023/10/03 10:21:20;;;;;;;2.43;0.53;;;22.60;74.20;;;;;;5072609;28;20036;-73
2023/10/03 10:24:15;;;;;;;1.70;0.70;;;22.60;74.20;;;;;;5073347;28;20036;-71
2023/10/03 10:26:42;;;;;;;2.42;0.57;;;22.70;77.00;;;;;;5072574;28;20028;-72
2023/10/03 10:29:09;;;;;;;1.10;0.60;;;22.60;78.20;;;;;;5072876;28;20099;-72
2023/10/03 10:31:37;;;;;;;1.42;0.68;;;;;;;;;;5072368;28;20087;-71
2023/10/03 10:34:21;;;;;;;1.63;0.65;;;22.50;74.70;;;;;;5072431;28;20494;-71
2023/10/03 10:36:56;;;;;;;2.58;0.70;;;22.50;74.80;;;;;;5072375;28;20450;-71
2023/10/03 10:39:25;;;;;;;1.15;0.73;;;;;;;;;;5072475;28;20094;-71
2023/10/03 10:42:09;;;;;;;1.35;0.50;;;22.80;78.40;;;;;;5070797;28;20127;-72
2023/10/03 10:44:36;;;;;;;1.83;0.52;;;;;;;;;;5072543;28;20037;-71
2023/10/03 10:47:06;;;;;;;1.33;0.70;;;22.60;74.90;;;;;;5072333;28;20028;-71
2023/10/03 10:49:33;;;;;;;1.60;0.80;;;;;;;;;;5072283;28;20387;-71
2023/10/03 10:52:13;;;;;;;1.05;0.60;;;22.50;80.30;;;;;;5072078;28;20601;-71
2023/10/03 10:54:41;;;;;;;1.05;0.65;;;;;;;;;;5072116;28;20483;-71
2023/10/03 10:57:09;;;;;;;2.60;0.50;;;;;;;;;;5054364;28;20507;-71
2023/10/03 10:59:35;;;;;;;1.63;0.63;;;;;;;;;;5071695;28;20044;-71
2023/10/03 11:02:03;;;;;;;1.58;0.68;;;;;;;;;;5071871;28;20459;-71
2023/10/03 11:04:34;;;;;;;1.50;0.60;;;;;;;;;;5071589;28;20059;-71
2023/10/03 11:07:00;;;;;;;2.03;0.73;;;;;;;;;;5071625;28;20020;-70
2023/10/03 11:09:29;;;;;;;2.00;0.80;;;;;;;;;;5071700;28;20024;-71
2023/10/03 11:11:56;;;;;;;3.10;0.88;;;;;;;;;;5071452;28;20034;-70
2023/10/03 11:14:29;;;;;;;2.75;0.95;;;22.50;74.90;;;;;;5071488;28;20032;-77
2023/10/03 11:16:59;;;;;;;1.15;0.68;;;22.50;80.20;;;;;;5071637;28;20020;-73
2023/10/03 11:19:27;;;;;;;2.10;0.85;;;22.50;80.60;;;;;;5072024;28;20032;-73
2023/10/03 11:21:54;;;;;;;1.38;0.73;;;;;;;;;;5071770;28;20486;-72
2023/10/03 11:24:21;;;;;;;1.73;1.00;;;22.40;80.40;;;;;;5072312;28;20052;-72
2023/10/03 11:26:48;;;;;;;1.85;0.82;;;;;;;;;;5071669;28;20016;-72
2023/10/03 11:29:15;;;;;;;1.75;0.82;;;22.40;78.20;;;;;;5072520;28;20032;-75
2023/10/03 11:31:42;;;;;;;2.15;0.90;;;22.40;79.50;;;;;;5071882;28;20031;-74
2023/10/03 11:34:08;;;;;;;1.65;0.70;;;;;;;;;;5054032;28;20048;-75
2023/10/03 11:36:42;;;;;;;1.30;0.73;;;22.40;75.00;;;;;;5071938;28;20047;-75
2023/10/03 11:39:10;;;;;;;1.80;0.85;;;;;;;;;;5071609;28;20128;-75
2023/10/03 11:41:39;;;;;;;3.67;1.02;;;;;;;;;;5071871;28;20427;-75
2023/10/03 11:44:17;;;;;;;1.67;0.60;;;22.40;80.60;;;;;;5071966;28;20032;-74
2023/10/03 11:46:44;;;;;;;1.05;0.60;;;;;;;;;;5071744;28;20035;-74
2023/10/03 11:49:10;;;;;;;2.00;0.90;;;;;;;;;;5072014;28;20505;-72
2023/10/03 11:51:42;;;;;;;1.35;0.80;;;;;;;;;;5071651;28;20029;-72
2023/10/03 11:54:08;;;;;;;1.70;1.10;;;;;;;;;;5071845;28;20035;-72
2023/10/03 11:56:42;;;;;;;1.83;0.70;;;22.50;74.60;;;;;;5072002;28;20481;-72
2023/10/03 11:59:08;;;;;;;1.42;0.70;;;;;;;;;;5072132;28;20033;-72
2023/10/03 12:01:35;;;;;;;1.83;0.98;;;;;;;;;;5071537;28;20027;-72
2023/10/03 12:04:02;;;;;;;1.35;0.80;;;22.80;77.50;;;;;;5071382;28;20064;-72
2023/10/03 12:06:31;;;;;;;1.42;0.77;;;;;;;;;;5071670;28;20387;-72
2023/10/03 12:08:57;;;;;;;1.70;0.80;;;;;;;;;;5071625;28;20187;-72
2023/10/03 12:11:24;;;;;;;1.17;0.75;;;;;;;;;;5071657;28;20103;-73
2023/10/03 12:13:50;;;;;;;2.35;1.02;;;;;;;;;;5071493;28;20035;-73
2023/10/03 12:16:17;;;;;;;1.52;0.98;;;;;;;;;;5071378;28;20104;-72
2023/10/03 12:18:43;;;;;;;1.30;0.70;;;;;;;;;;5071175;28;20037;-72
2023/10/03 12:21:09;;;;;;;1.15;0.68;;;;;;;;;;5071136;28;20078;-72
2023/10/03 12:23:36;;;;;;;3.10;0.95;;;;;;;;;;5053552;28;20037;-72
2023/10/03 12:26:02;;;;;;;1.20;0.80;;;;;;;;;;5071809;28;20482;-72
2023/10/03 12:28:28;;;;;;;1.35;0.70;;;;;;;;;;5071149;28;20067;-72
2023/10/03 12:30:54;;;;;;;1.83;0.88;;;;;;;;;;5070940;28;20093;-73
2023/10/03 12:33:20;;;;;;;1.55;1.00;;;;;;;;;;5071328;28;20029;-72
2023/10/03 12:35:47;;;;;;;2.00;0.88;;;;;;;;;;5071061;28;20025;-72
2023/10/03 12:38:15;;;;;;;3.20;0.90;;;;;;;;;;5071398;28;20044;-72
2023/10/03 12:40:43;;;;;;;2.33;0.80;;;;;;;;;;5071515;28;20036;-71
2023/10/03 12:43:10;;;;;;;2.45;1.00;;;;;;;;;;5071301;28;20036;-70
2023/10/03 12:45:36;;;;;;;1.52;0.73;;;;;;;;;;5071387;28;20036;-70
2023/10/03 12:48:05;;;;;;;2.58;0.90;;;;;;;;;;5070866;28;20498;-70
2023/10/03 12:50:31;;;;;;;2.35;0.85;;;;;;;;;;5072895;28;20116;-70
2023/10/03 12:53:01;;;;;;;1.48;0.70;;;22.50;80.60;;;;;;5074616;28;20090;-70
2023/10/03 12:55:29;;;;;;;1.42;0.73;;;22.50;80.60;;;;;;5074695;28;20115;-71
2023/10/03 12:57:58;;;;;;;2.10;0.95;;;22.40;80.20;;;;;;5074540;28;20023;-70
2023/10/03 13:00:27;;;;;;;2.05;0.85;;;22.40;78.70;;;;;;5074408;28;20024;-70
2023/10/03 13:02:56;;;;;;;1.92;1.02;;;22.50;80.90;;;;;;5074277;28;20099;-70
2023/10/03 13:05:23;;;;;;;1.27;0.68;;;;;;;;;;5074436;28;20434;-70
2023/10/03 13:07:50;;;;;;;3.58;1.13;;;22.50;80.40;;;;;;5073880;28;20033;-70
2023/10/03 13:10:19;;;;;;;2.35;1.10;;;22.90;80.90;;;;;;5074181;28;20532;-70
2023/10/03 13:12:47;;;;;;;1.80;0.93;;;22.50;80.10;;;;;;5074568;28;20417;-70
2023/10/03 13:15:17;;;;;;;1.05;0.75;;;22.70;79.40;;;;;;5074649;28;20051;-71
2023/10/03 13:17:45;;;;;;;1.60;0.90;;;22.80;79.10;;;;;;5056303;28;20120;-70
2023/10/03 13:20:11;;;;;;;1.95;1.10;;;22.90;75.80;;;;;;5074411;28;20248;-70
2023/10/03 13:22:43;;;;;;;1.65;1.00;;;23.10;78.20;;;;;;5074021;28;20111;-70
2023/10/03 13:25:09;;;;;;;1.27;0.80;;;23.20;75.30;;;;;;5074079;28;20025;-71
2023/10/03 13:27:35;;;;;;;0.90;0.60;;;;;;;;;;5074002;28;20028;-71
2023/10/03 13:30:02;;;;;;;2.38;1.00;;;23.10;76.50;;;;;;5074094;28;20036;-71
2023/10/03 13:32:28;;;;;;;2.80;0.98;;;;;;;;;;5073875;28;20101;-71
2023/10/03 13:35:02;;;;;;;3.20;0.85;;;;;;;;;;5074034;28;20398;-70
2023/10/03 13:37:29;;;;;;;1.48;0.80;;;;;;;;;;5074047;28;20168;-70
2023/10/03 13:39:55;;;;;;;1.10;1.00;;;;;;;;;;5073815;28;20434;-71
2023/10/03 13:42:21;;;;;;;2.92;1.27;;;;;;;;;;5073464;28;20059;-70
2023/10/03 13:44:52;;;;;;;2.10;0.82;;;;;;;;;;5073509;28;20086;-70
2023/10/03 13:47:19;;;;;;;1.05;0.73;;;;;;;;;;5074118;28;20025;-70
2023/10/03 13:49:45;;;;;;;2.83;0.98;;;;;;;;;;5056092;28;20029;-71
2023/10/03 13:52:13;;;;;;;2.15;1.00;;;;;;;;;;5073543;28;20609;-69
2023/10/03 13:54:42;;;;;;;1.95;0.90;;;;;;;;;;5073856;28;20144;-71
2023/10/03 13:57:08;;;;;;;2.10;1.20;;;;;;;;;;5073594;28;20099;-69
2023/10/03 13:59:36;;;;;;;2.67;1.00;;;;;;;;;;5073573;28;20115;-69
2023/10/03 14:02:03;;;;;;;4.22;1.05;;;23.90;74.00;;;;;;5073137;28;20020;-69
2023/10/03 14:04:30;;;;;;;2.40;1.20;;;23.90;73.30;;;;;;5055139;28;20054;-70
2023/10/03 14:06:57;;;;;;;2.38;1.10;;;;;;;;;;5073274;28;20024;-69
2023/10/03 14:09:26;;;;;;;2.17;1.05;;;;;;;;;;5072810;28;20032;-69